Terminal Aerodrome Forecast
Issued by NWS Cleveland, OH

Home | Current Version | Previous Version | Graphics & Text | Print | Product List | Glossary On
Versions: 1 2 3 4 5 6 7 8 9 10 11 12 13 14 15 16 17 18 19 20 21 22 23 24 25 26 27 28 29 30 31
000
FTUS41 KCLE 050300 AAA
TAFERI
TAF AMD
KERI 050338Z 0504/0524 25010KT P6SM BKN030 BKN100
      TEMPO 0508/0512 SCT030
     FM051200 02010KT P6SM BKN045 BKN120
     FM052100 03010KT P6SM -SHRA SCT045 BKN120=

USA.gov is the U.S. government's official web portal to all federal, state and local government web resources and services.